TimeCDT,TemperatureF,Dew PointF,Humidity,Sea Level PressureIn,VisibilityMPH,Wind Direction,Wind SpeedMPH,Gust SpeedMPH,PrecipitationIn,Events,Conditions,WindDirDegrees,DateUTC
12:15 AM,54.0,53.2,97,29.96,5.0,Calm,Calm,-,N/A,,Mostly Cloudy,0,2014-04-21 05:15:00
12:35 AM,53.2,52.5,97,29.96,4.0,Calm,Calm,-,N/A,,Mostly Cloudy,0,2014-04-21 05:35:00
12:55 AM,53.6,52.7,97,29.96,3.0,Calm,Calm,-,N/A,Rain,Light Rain,0,2014-04-21 05:55:00
1:15 AM,53.6,52.9,97,29.97,3.0,Calm,Calm,-,N/A,,Overcast,0,2014-04-21 06:15:00
1:35 AM,54.0,53.2,97,29.98,3.0,Calm,Calm,-,N/A,Rain,Light Rain,0,2014-04-21 06:35:00
1:55 AM,53.6,52.7,97,29.97,1.5,Calm,Calm,-,0.02,Rain,Light Rain,0,2014-04-21 06:55:00
2:15 AM,53.6,52.9,97,29.97,1.5,Calm,Calm,-,0.01,Rain,Light Rain,0,2014-04-21 07:15:00
2:35 AM,53.2,52.7,98,29.97,1.0,Calm,Calm,-,0.01,,Overcast,0,2014-04-21 07:35:00
2:55 AM,52.9,52.5,99,29.96,0.5,Calm,Calm,-,0.01,Fog,Fog,0,2014-04-21 07:55:00
3:15 AM,52.7,52.0,97,29.95,1.0,ESE,3.5,-,N/A,,Overcast,120,2014-04-21 08:15:00
3:35 AM,52.7,52.0,97,29.95,0.8,East,4.6,-,N/A,,Mostly Cloudy,100,2014-04-21 08:35:00
3:55 AM,52.3,51.8,98,29.93,0.8,Calm,Calm,-,N/A,,Mist,0,2014-04-21 08:55:00
4:15 AM,52.7,52.3,99,29.92,1.8,NNE,3.5,-,N/A,,Mist,20,2014-04-21 09:15:00
4:35 AM,52.9,52.5,99,29.93,2.5,Calm,Calm,-,N/A,,Mostly Cloudy,0,2014-04-21 09:35:00
4:55 AM,52.0,51.6,99,29.92,1.0,NE,3.5,-,N/A,,Overcast,40,2014-04-21 09:55:00
5:15 AM,51.8,51.4,99,29.92,1.2,NW,4.6,-,N/A,,Mostly Cloudy,310,2014-04-21 10:15:00
5:35 AM,51.4,51.1,99,29.92,1.0,Calm,Calm,-,N/A,,Mist,0,2014-04-21 10:35:00
5:50 AM,51.3,50.9,99,29.92,1.0,South,3.5,-,N/A,,Mist,170,2014-04-21 10:50:00
6:15 AM,51.3,50.9,99,29.92,0.5,Calm,Calm,-,N/A,Fog,Fog,0,2014-04-21 11:15:00
6:56 AM,51.8,50.0,94,29.93,0.2,South,3.5,-,N/A,Fog,Fog,180,2014-04-21 11:56:00
7:16 AM,51.8,51.8,100,29.93,0.5,Calm,Calm,-,N/A,Fog,Fog,0,2014-04-21 12:16:00
7:36 AM,51.8,51.8,100,29.93,1.0,Calm,Calm,-,N/A,Rain,Light Rain,0,2014-04-21 12:36:00
7:56 AM,53.6,51.8,94,29.93,1.5,Calm,Calm,-,N/A,Rain,Light Rain,0,2014-04-21 12:56:00
8:16 AM,53.6,53.6,100,29.93,2.5,Calm,Calm,-,N/A,,Mostly Cloudy,0,2014-04-21 13:16:00
8:36 AM,53.6,53.6,100,29.93,1.8,Calm,Calm,-,N/A,,Overcast,0,2014-04-21 13:36:00
8:55 AM,54.0,53.6,99,29.92,2.5,Calm,Calm,-,N/A,Rain,Light Rain,0,2014-04-21 13:55:00
9:15 AM,54.3,54.0,99,29.92,2.0,Calm,Calm,-,N/A,,Overcast,0,2014-04-21 14:15:00
9:35 AM,54.7,54.5,99,29.91,3.0,Calm,Calm,-,N/A,,Overcast,0,2014-04-21 14:35:00
9:55 AM,55.9,55.6,99,29.90,4.0,Calm,Calm,-,N/A,,Overcast,0,2014-04-21 14:55:00
10:15 AM,58.1,57.6,98,29.90,10.0,South,3.5,-,N/A,,Overcast,190,2014-04-21 15:15:00
10:35 AM,61.5,56.1,82,29.89,10.0,South,4.6,-,N/A,Rain,Light Rain,180,2014-04-21 15:35:00
10:55 AM,61.7,57.0,85,29.91,10.0,NW,6.9,-,N/A,,Light Drizzle,320,2014-04-21 15:55:00
11:15 AM,61.9,55.2,79,29.91,10.0,WNW,6.9,-,N/A,,Clear,290,2014-04-21 16:15:00
11:35 AM,61.2,54.0,77,29.91,10.0,WNW,4.6,-,N/A,,Mostly Cloudy,290,2014-04-21 16:35:00
11:50 AM,61.5,53.2,74,29.92,10.0,NW,8.1,-,N/A,,Overcast,310,2014-04-21 16:50:00
12:15 PM,62.6,52.5,70,29.91,10.0,West,5.8,-,N/A,,Scattered Clouds,260,2014-04-21 17:15:00
12:35 PM,62.4,51.8,68,29.90,10.0,West,3.5,-,N/A,,Scattered Clouds,280,2014-04-21 17:35:00
12:55 PM,62.2,51.6,68,29.90,10.0,West,3.5,-,N/A,,Scattered Clouds,280,2014-04-21 17:55:00
1:15 PM,64.8,52.0,63,29.89,10.0,West,6.9,-,N/A,,Clear,280,2014-04-21 18:15:00
1:35 PM,65.5,52.7,63,29.88,10.0,SW,3.5,-,N/A,,Clear,230,2014-04-21 18:35:00
1:55 PM,67.1,52.5,59,29.87,10.0,SSW,6.9,-,N/A,,Clear,210,2014-04-21 18:55:00
2:15 PM,67.6,53.1,59,29.87,10.0,WSW,5.8,-,N/A,,Scattered Clouds,240,2014-04-21 19:15:00
2:35 PM,67.3,53.1,60,29.86,10.0,WSW,3.5,-,N/A,,Mostly Cloudy,250,2014-04-21 19:35:00
2:55 PM,68.0,52.9,58,29.86,10.0,West,6.9,-,N/A,,Mostly Cloudy,270,2014-04-21 19:55:00
3:15 PM,69.3,52.5,55,29.85,10.0,WNW,9.2,-,N/A,,Overcast,300,2014-04-21 20:15:00
3:30 PM,68.9,51.8,54,29.84,10.0,WNW,8.1,-,N/A,,Mostly Cloudy,300,2014-04-21 20:30:00
3:55 PM,64.9,55.6,72,29.84,10.0,WSW,3.5,-,0.01,,Overcast,240,2014-04-21 20:55:00
4:15 PM,69.4,53.4,57,29.83,10.0,WSW,5.8,-,N/A,,Scattered Clouds,250,2014-04-21 21:15:00
4:35 PM,71.6,47.1,42,29.82,10.0,West,13.8,18.4,N/A,,Scattered Clouds,270,2014-04-21 21:35:00
4:55 PM,72.9,41.0,32,29.82,10.0,WNW,15.0,21.9,N/A,,Scattered Clouds,290,2014-04-21 21:55:00
5:15 PM,73.2,36.9,27,29.82,10.0,NW,15.0,19.6,N/A,,Mostly Cloudy,320,2014-04-21 22:15:00
5:35 PM,72.5,32.0,23,29.82,10.0,West,12.7,19.6,N/A,,Scattered Clouds,280,2014-04-21 22:35:00
5:55 PM,71.6,31.8,23,29.82,10.0,West,15.0,23.0,N/A,,Clear,280,2014-04-21 22:55:00
6:15 PM,71.2,32.0,24,29.82,10.0,West,16.1,21.9,N/A,,Clear,280,2014-04-21 23:15:00
6:35 PM,70.2,31.8,24,29.83,10.0,WNW,16.1,21.9,N/A,,Clear,300,2014-04-21 23:35:00
6:55 PM,68.4,31.5,25,29.84,10.0,NW,17.3,26.5,N/A,,Clear,320,2014-04-21 23:55:00
7:36 PM,64.4,32.0,30,29.85,10.0,NW,13.8,18.4,N/A,,Clear,310,2014-04-22 00:36:00
7:55 PM,63.7,32.9,32,29.87,10.0,NNW,11.5,18.4,N/A,,Clear,330,2014-04-22 00:55:00
7:56 PM,64.4,33.8,32,29.87,10.0,NNW,13.8,18.4,N/A,,Clear,330,2014-04-22 00:56:00
8:15 PM,61.9,35.1,37,29.88,10.0,NW,10.4,20.7,N/A,,Clear,320,2014-04-22 01:15:00
8:35 PM,60.6,34.5,38,29.89,10.0,NW,18.4,24.2,N/A,,Clear,320,2014-04-22 01:35:00
8:55 PM,59.2,32.2,36,29.91,10.0,NW,15.0,20.7,N/A,,Clear,320,2014-04-22 01:55:00
9:15 PM,58.1,30.4,35,29.92,10.0,NW,17.3,24.2,N/A,,Clear,320,2014-04-22 02:15:00
9:35 PM,56.1,29.3,36,29.94,10.0,NW,20.7,31.1,N/A,,Clear,320,2014-04-22 02:35:00
9:55 PM,54.5,29.7,39,29.95,10.0,NNW,12.7,25.3,N/A,,Clear,330,2014-04-22 02:55:00
10:15 PM,53.4,30.2,41,29.96,10.0,NW,12.7,-,N/A,,Clear,320,2014-04-22 03:15:00
10:35 PM,52.5,29.7,42,29.96,10.0,NW,6.9,17.3,N/A,,Clear,320,2014-04-22 03:35:00
10:55 PM,51.6,29.8,43,29.96,10.0,NW,8.1,-,N/A,,Clear,320,2014-04-22 03:55:00
11:15 PM,50.4,30.2,46,29.96,10.0,NNW,10.4,-,N/A,,Clear,330,2014-04-22 04:15:00
11:55 PM,49.5,30.2,48,29.97,10.0,NNW,11.5,17.3,N/A,,Clear,330,2014-04-22 04:55:00